createdAt,value
2023-03-03T00:00:14.272Z,8.70
2023-03-03T00:01:14.264Z,9.20
2023-03-03T00:02:14.316Z,9.90
2023-03-03T00:03:14.310Z,8.80
2023-03-03T00:04:14.294Z,7.50
2023-03-03T00:05:14.308Z,9.50
2023-03-03T00:06:14.290Z,8.50
2023-03-03T00:07:14.301Z,7.90
2023-03-03T00:08:14.313Z,8.80
2023-03-03T00:09:14.337Z,10.70
2023-03-03T00:10:14.310Z,7.60
2023-03-03T00:11:14.305Z,8.40
2023-03-03T00:12:14.327Z,8.50
2023-03-03T00:13:14.319Z,7.60
2023-03-03T00:14:14.319Z,9.80
2023-03-03T00:15:14.341Z,7.70
2023-03-03T00:16:14.442Z,7.30
2023-03-03T00:17:14.341Z,6.40
2023-03-03T00:18:14.340Z,8.20
2023-03-03T00:19:14.352Z,6.90
2023-03-03T00:20:14.353Z,6.90
2023-03-03T00:21:14.358Z,7.70
2023-03-03T00:22:14.356Z,5.70
2023-03-03T00:23:14.364Z,8.50
2023-03-03T00:24:14.375Z,8.60
2023-03-03T00:25:14.373Z,8.90
2023-03-03T00:26:14.372Z,6.60
2023-03-03T00:27:14.378Z,8.30
2023-03-03T00:28:14.381Z,6.70
2023-03-03T00:29:14.395Z,8.70
2023-03-03T00:30:14.389Z,6.30
2023-03-03T00:31:14.412Z,8.20
2023-03-03T00:32:14.466Z,8.40
2023-03-03T00:33:14.408Z,5.70
2023-03-03T00:34:14.410Z,7.40
2023-03-03T00:35:14.421Z,7.60
2023-03-03T00:36:14.419Z,6.10
2023-03-03T00:37:14.424Z,6.90
2023-03-03T00:38:14.442Z,7.80
2023-03-03T00:39:14.436Z,10.80
2023-03-03T00:40:14.447Z,7.30
2023-03-03T00:41:14.443Z,8.40
2023-03-03T00:42:14.450Z,6.60
2023-03-03T00:43:14.454Z,6.60
2023-03-03T00:44:14.455Z,8.70
2023-03-03T00:45:14.460Z,8.90
2023-03-03T00:46:14.523Z,7.70
2023-03-03T00:47:14.478Z,10.10
2023-03-03T00:48:14.491Z,7.80
2023-03-03T00:49:14.476Z,7.40
2023-03-03T00:50:14.478Z,6.90
2023-03-03T00:51:14.488Z,7.60
2023-03-03T00:52:14.486Z,9.00
2023-03-03T00:53:14.494Z,7.30
2023-03-03T00:54:14.502Z,6.20
2023-03-03T00:55:14.502Z,6.70
2023-03-03T00:56:14.504Z,10.30
2023-03-03T00:57:14.517Z,7.40
2023-03-03T00:58:14.513Z,7.30
2023-03-03T00:59:14.518Z,8.90
2023-03-03T01:00:14.537Z,9.60
2023-03-03T01:01:14.551Z,10.20
2023-03-03T01:02:14.574Z,7.30
2023-03-03T01:03:14.559Z,7.70
2023-03-03T01:04:14.556Z,7.70
2023-03-03T01:05:14.542Z,7.90
2023-03-03T01:06:14.546Z,7.70
2023-03-03T01:07:14.552Z,9.60
2023-03-03T01:08:14.564Z,9.20
2023-03-03T01:09:14.566Z,9.60
2023-03-03T01:10:14.565Z,9.10
2023-03-03T01:11:14.564Z,9.60
2023-03-03T01:12:14.567Z,9.00
2023-03-03T01:13:14.572Z,9.40
2023-03-03T01:14:14.616Z,10.10
2023-03-03T01:15:14.586Z,9.10
2023-03-03T01:16:14.634Z,7.80
2023-03-03T01:17:14.588Z,9.20
2023-03-03T01:18:14.590Z,9.10
2023-03-03T01:19:14.597Z,7.20
2023-03-03T01:20:14.633Z,10.10
2023-03-03T01:21:14.605Z,7.90
2023-03-03T01:22:14.604Z,7.10
2023-03-03T01:23:14.625Z,7.10
2023-03-03T01:24:14.613Z,7.40
2023-03-03T01:25:14.620Z,7.10
2023-03-03T01:26:14.642Z,9.70
2023-03-03T01:27:14.634Z,7.60
2023-03-03T01:28:14.633Z,8.00
2023-03-03T01:29:14.644Z,7.40
2023-03-03T01:30:14.638Z,8.00
2023-03-03T01:31:14.692Z,7.80
2023-03-03T01:32:14.673Z,6.90
2023-03-03T01:33:14.651Z,6.80
2023-03-03T01:34:14.653Z,7.10
2023-03-03T01:35:14.674Z,8.70
2023-03-03T01:36:14.679Z,6.20
2023-03-03T01:37:14.672Z,8.90
2023-03-03T01:38:14.678Z,6.80
2023-03-03T01:39:14.685Z,6.70
2023-03-03T01:40:14.686Z,6.50
2023-03-03T01:41:14.683Z,7.90
2023-03-03T01:42:14.685Z,8.00
2023-03-03T01:43:14.688Z,8.20
2023-03-03T01:44:14.692Z,6.20
2023-03-03T01:45:14.703Z,8.00
2023-03-03T01:46:14.758Z,5.40
2023-03-03T01:47:14.708Z,7.50
2023-03-03T01:48:14.708Z,6.70
2023-03-03T01:49:14.714Z,6.50
2023-03-03T01:50:14.723Z,6.40
2023-03-03T01:51:14.736Z,7.40
2023-03-03T01:52:14.772Z,5.40
2023-03-03T01:53:14.727Z,5.20
2023-03-03T01:54:14.762Z,4.90
2023-03-03T01:55:14.735Z,4.80
2023-03-03T01:56:14.737Z,5.80
2023-03-03T01:57:14.751Z,5.40
2023-03-03T01:58:14.752Z,5.70
2023-03-03T01:59:14.757Z,5.40
2023-03-03T02:00:14.753Z,6.60
2023-03-03T02:01:14.792Z,6.50
2023-03-03T02:02:14.773Z,6.30
2023-03-03T02:03:14.769Z,7.10
2023-03-03T02:04:14.768Z,7.90
2023-03-03T02:05:14.781Z,6.30
2023-03-03T02:06:14.786Z,5.80
2023-03-03T02:07:14.782Z,7.60
2023-03-03T02:08:14.804Z,6.60
2023-03-03T02:09:14.790Z,8.50
2023-03-03T02:10:14.799Z,11.00
2023-03-03T02:11:14.801Z,9.20
2023-03-03T02:12:14.804Z,5.80
2023-03-03T02:13:14.824Z,5.70
2023-03-03T02:14:14.816Z,5.90
2023-03-03T02:15:14.821Z,9.70
2023-03-03T02:16:14.855Z,5.10
2023-03-03T02:17:14.830Z,6.00
2023-03-03T02:18:14.828Z,7.60
2023-03-03T02:19:14.837Z,6.70
2023-03-03T02:20:14.833Z,7.30
2023-03-03T02:21:14.841Z,6.80
2023-03-03T02:22:14.843Z,9.10
2023-03-03T02:23:14.872Z,5.90
2023-03-03T02:24:14.886Z,5.90
2023-03-03T02:25:14.861Z,7.40
2023-03-03T02:26:14.860Z,9.40
2023-03-03T02:27:14.864Z,8.20
2023-03-03T02:28:14.866Z,6.60
2023-03-03T02:29:14.881Z,5.70
2023-03-03T02:30:14.878Z,8.10
2023-03-03T02:31:14.916Z,7.40
2023-03-03T02:32:15.010Z,7.50
2023-03-03T02:33:14.889Z,6.10
2023-03-03T02:34:14.891Z,8.50
2023-03-03T02:35:14.891Z,8.10
2023-03-03T02:36:14.901Z,10.20
2023-03-03T02:37:14.905Z,6.90
2023-03-03T02:38:14.913Z,8.10
2023-03-03T02:39:14.925Z,6.10
2023-03-03T02:40:14.941Z,9.50
2023-03-03T02:41:14.910Z,6.80
2023-03-03T02:42:14.926Z,5.90
2023-03-03T02:43:14.934Z,6.60
2023-03-03T02:44:14.925Z,7.10
2023-03-03T02:45:14.927Z,6.50
2023-03-03T02:46:14.937Z,6.40
2023-03-03T02:47:14.942Z,7.90
2023-03-03T02:48:14.947Z,6.80
2023-03-03T02:49:14.941Z,6.90
2023-03-03T02:50:14.948Z,7.20
2023-03-03T02:51:14.979Z,7.60
2023-03-03T02:52:15.089Z,7.90
2023-03-03T02:53:14.987Z,6.70
2023-03-03T02:54:14.960Z,5.50
2023-03-03T02:55:14.960Z,7.00
2023-03-03T02:56:14.985Z,6.80
2023-03-03T02:57:14.970Z,6.20
2023-03-03T02:58:14.977Z,6.10
2023-03-03T02:59:14.973Z,5.40
2023-03-03T03:00:14.979Z,6.30
2023-03-03T03:01:15.002Z,7.70
2023-03-03T03:02:14.989Z,5.40
2023-03-03T03:03:14.993Z,6.20
2023-03-03T03:04:15.075Z,7.50
2023-03-03T03:05:14.994Z,4.90
2023-03-03T03:06:15.001Z,5.80
2023-03-03T03:07:15.007Z,5.50
2023-03-03T03:08:15.010Z,5.80
2023-03-03T03:09:15.012Z,5.40
2023-03-03T03:10:15.015Z,5.90
2023-03-03T03:11:15.014Z,7.30
2023-03-03T03:12:15.074Z,5.20
2023-03-03T03:13:15.023Z,7.00
2023-03-03T03:14:15.039Z,6.30
2023-03-03T03:15:15.030Z,6.30
2023-03-03T03:16:15.111Z,6.40
2023-03-03T03:17:15.038Z,5.50
2023-03-03T03:18:15.045Z,5.80
2023-03-03T03:19:15.057Z,7.50
2023-03-03T03:20:15.052Z,6.10
2023-03-03T03:21:15.054Z,15.40
2023-03-03T03:22:15.062Z,23.00
2023-03-03T03:23:15.062Z,6.50
2023-03-03T03:24:15.069Z,8.10
2023-03-03T03:25:15.069Z,7.70
2023-03-03T03:26:15.081Z,5.30
2023-03-03T03:27:15.076Z,5.90
2023-03-03T03:28:15.098Z,6.10
2023-03-03T03:29:15.089Z,5.30
2023-03-03T03:30:15.096Z,6.20
2023-03-03T03:31:15.091Z,5.50
2023-03-03T03:32:15.114Z,5.60
2023-03-03T03:33:15.101Z,6.10
2023-03-03T03:34:15.108Z,6.60
2023-03-03T03:35:15.122Z,5.40
2023-03-03T03:36:15.111Z,7.20
2023-03-03T03:37:15.113Z,4.80
2023-03-03T03:38:15.120Z,7.50
2023-03-03T03:39:15.118Z,7.60
2023-03-03T03:40:15.124Z,7.70
2023-03-03T03:41:15.128Z,5.10
2023-03-03T03:42:15.131Z,5.90
2023-03-03T03:43:15.131Z,5.50
2023-03-03T03:44:15.163Z,6.90
2023-03-03T03:45:15.141Z,6.10
2023-03-03T03:46:15.206Z,6.70
2023-03-03T03:47:15.154Z,5.70
2023-03-03T03:48:15.156Z,5.70
2023-03-03T03:49:15.152Z,6.60
2023-03-03T03:50:15.170Z,6.20
2023-03-03T03:51:15.186Z,8.90
2023-03-03T03:52:15.191Z,7.80
2023-03-03T03:53:15.172Z,5.60
2023-03-03T03:54:15.185Z,5.70
2023-03-03T03:55:15.184Z,6.40
2023-03-03T03:56:15.189Z,5.00
2023-03-03T03:57:15.189Z,7.80
2023-03-03T03:58:15.198Z,5.40
2023-03-03T03:59:15.213Z,6.10
2023-03-03T04:00:15.225Z,5.70
2023-03-03T04:01:15.202Z,5.50
2023-03-03T04:02:15.276Z,6.10
2023-03-03T04:03:15.397Z,5.70
2023-03-03T04:04:15.217Z,5.30
2023-03-03T04:05:15.218Z,5.10
2023-03-03T04:06:15.255Z,6.40
2023-03-03T04:07:15.231Z,7.10
2023-03-03T04:08:15.233Z,5.60
2023-03-03T04:09:15.239Z,4.50
2023-03-03T04:10:15.245Z,5.00
2023-03-03T04:11:15.241Z,9.20
2023-03-03T04:12:15.263Z,4.80
2023-03-03T04:13:15.247Z,5.30
2023-03-03T04:14:15.260Z,6.40
2023-03-03T04:15:15.276Z,5.70
2023-03-03T04:16:15.394Z,4.60
2023-03-03T04:17:15.322Z,5.30
2023-03-03T04:18:15.277Z,5.20
2023-03-03T04:19:15.276Z,4.90
2023-03-03T04:20:15.276Z,4.40
2023-03-03T04:21:15.304Z,6.40
2023-03-03T04:22:15.293Z,6.30
2023-03-03T04:23:15.286Z,6.10
2023-03-03T04:24:15.293Z,8.50
2023-03-03T04:25:15.319Z,5.90
2023-03-03T04:26:15.306Z,6.40
2023-03-03T04:27:15.348Z,7.60
2023-03-03T04:28:15.304Z,5.00
2023-03-03T04:29:15.309Z,5.30
2023-03-03T04:30:15.330Z,5.90
2023-03-03T04:31:15.412Z,5.40
2023-03-03T04:32:15.353Z,6.80
2023-03-03T04:33:15.320Z,6.40
2023-03-03T04:34:15.328Z,5.40
2023-03-03T04:35:15.327Z,4.70
2023-03-03T04:36:15.335Z,6.00
2023-03-03T04:37:15.335Z,5.60
2023-03-03T04:38:15.350Z,6.60
2023-03-03T04:39:15.341Z,6.80
2023-03-03T04:40:15.346Z,6.20
2023-03-03T04:41:15.349Z,5.40
2023-03-03T04:42:15.357Z,5.60
2023-03-03T04:43:15.356Z,4.70
2023-03-03T04:44:15.363Z,6.90
2023-03-03T04:45:15.360Z,6.00
2023-03-03T04:46:15.412Z,6.20
2023-03-03T04:47:15.375Z,5.00
2023-03-03T04:48:15.398Z,3.90
2023-03-03T04:49:15.401Z,5.50
2023-03-03T04:50:15.389Z,5.70
2023-03-03T04:51:15.382Z,5.00
2023-03-03T04:52:15.392Z,7.00
2023-03-03T04:53:15.396Z,5.90
2023-03-03T04:54:15.400Z,5.70
2023-03-03T04:55:15.399Z,7.20
2023-03-03T04:56:15.403Z,6.40
2023-03-03T04:57:15.410Z,6.00
2023-03-03T04:58:15.413Z,6.30
2023-03-03T04:59:15.433Z,5.60
2023-03-03T05:00:15.424Z,5.60
2023-03-03T05:01:15.478Z,6.10
2023-03-03T05:02:15.425Z,5.30
2023-03-03T05:03:15.434Z,5.20
2023-03-03T05:04:15.484Z,6.40
2023-03-03T05:05:15.453Z,5.00
2023-03-03T05:06:15.435Z,5.10
2023-03-03T05:07:15.435Z,5.90
2023-03-03T05:08:15.449Z,3.80
2023-03-03T05:09:15.443Z,5.70
2023-03-03T05:10:15.446Z,7.20
2023-03-03T05:11:15.456Z,7.10
2023-03-03T05:12:15.451Z,7.50
2023-03-03T05:13:15.460Z,4.70
2023-03-03T05:14:15.458Z,4.80
2023-03-03T05:15:15.459Z,5.60
2023-03-03T05:16:15.589Z,5.10
2023-03-03T05:17:15.464Z,4.60
2023-03-03T05:18:15.477Z,6.30
2023-03-03T05:19:15.471Z,6.00
2023-03-03T05:20:15.497Z,7.20
2023-03-03T05:21:15.474Z,5.30
2023-03-03T05:22:15.484Z,5.00
2023-03-03T05:23:15.498Z,4.30
2023-03-03T05:24:15.524Z,4.90
2023-03-03T05:25:15.490Z,5.20
2023-03-03T05:26:15.500Z,4.20
2023-03-03T05:27:15.497Z,5.20
2023-03-03T05:28:15.513Z,5.60
2023-03-03T05:29:15.514Z,6.00
2023-03-03T05:30:15.510Z,7.00
2023-03-03T05:31:15.553Z,4.90
2023-03-03T05:32:15.637Z,5.60
2023-03-03T05:33:15.516Z,4.30
2023-03-03T05:34:15.522Z,4.50
2023-03-03T05:35:15.526Z,5.00
2023-03-03T05:36:15.550Z,4.60
2023-03-03T05:37:15.534Z,5.00
2023-03-03T05:38:15.536Z,5.60
2023-03-03T05:39:15.536Z,4.90
2023-03-03T05:40:15.546Z,5.40
2023-03-03T05:41:15.542Z,8.30
2023-03-03T05:42:15.552Z,6.10
2023-03-03T05:43:15.553Z,5.40
2023-03-03T05:44:15.557Z,4.50
2023-03-03T05:45:15.566Z,6.20
2023-03-03T05:46:15.627Z,4.90
2023-03-03T05:47:15.564Z,8.60
2023-03-03T05:48:15.574Z,5.10
2023-03-03T05:49:15.615Z,6.00
2023-03-03T05:50:15.574Z,5.60
2023-03-03T05:51:15.584Z,6.10
2023-03-03T05:52:15.608Z,5.40
2023-03-03T05:53:15.582Z,5.40
2023-03-03T05:54:15.593Z,4.90
2023-03-03T05:55:15.604Z,4.20
2023-03-03T05:56:15.600Z,8.20
2023-03-03T05:57:15.598Z,6.40
2023-03-03T05:58:15.605Z,4.70
2023-03-03T05:59:15.606Z,4.60
2023-03-03T06:00:15.629Z,4.60
2023-03-03T06:01:15.621Z,5.40
2023-03-03T06:02:15.625Z,7.20
2023-03-03T06:03:15.694Z,5.20
2023-03-03T06:04:15.624Z,4.40
2023-03-03T06:05:15.629Z,4.80
2023-03-03T06:06:15.634Z,5.80
2023-03-03T06:07:15.637Z,5.60
2023-03-03T06:08:15.672Z,5.60
2023-03-03T06:09:15.646Z,4.60
2023-03-03T06:10:15.648Z,5.50
2023-03-03T06:11:15.652Z,4.70
2023-03-03T06:12:15.655Z,5.80
2023-03-03T06:13:15.654Z,5.30
2023-03-03T06:14:15.658Z,5.70
2023-03-03T06:15:15.717Z,5.80
2023-03-03T06:16:15.722Z,5.70
2023-03-03T06:17:15.662Z,5.50
2023-03-03T06:18:15.680Z,5.20
2023-03-03T06:19:15.676Z,7.60
2023-03-03T06:20:15.688Z,8.30
2023-03-03T06:21:15.680Z,4.20
2023-03-03T06:22:15.684Z,6.30
2023-03-03T06:23:15.682Z,5.60
2023-03-03T06:24:15.735Z,5.90
2023-03-03T06:25:15.690Z,4.60
2023-03-03T06:26:15.698Z,5.90
2023-03-03T06:27:15.698Z,4.90
2023-03-03T06:28:15.706Z,6.70
2023-03-03T06:29:15.937Z,4.70
2023-03-03T06:30:15.709Z,8.40
2023-03-03T06:31:15.788Z,5.30
2023-03-03T06:32:15.802Z,6.40
2023-03-03T06:33:15.715Z,5.70
2023-03-03T06:34:15.720Z,6.40
2023-03-03T06:35:15.724Z,5.90
2023-03-03T06:36:15.733Z,8.10
2023-03-03T06:37:15.724Z,6.70
2023-03-03T06:38:15.742Z,5.90
2023-03-03T06:39:15.731Z,5.70
2023-03-03T06:40:15.756Z,6.00
2023-03-03T06:41:15.736Z,6.40
2023-03-03T06:42:15.746Z,7.00
2023-03-03T06:43:15.750Z,7.60
2023-03-03T06:44:15.778Z,7.20
2023-03-03T06:45:15.754Z,5.60
2023-03-03T06:46:15.752Z,7.40
2023-03-03T06:47:15.757Z,7.90
2023-03-03T06:48:15.767Z,9.00
2023-03-03T06:49:15.774Z,8.30
2023-03-03T06:50:15.771Z,10.40
2023-03-03T06:51:15.769Z,9.60
2023-03-03T06:52:15.767Z,10.30
2023-03-03T06:53:15.778Z,10.90
2023-03-03T06:54:15.774Z,7.50
2023-03-03T06:55:15.782Z,7.80
2023-03-03T06:56:15.801Z,8.70
2023-03-03T06:57:15.787Z,8.10
2023-03-03T06:58:15.786Z,7.50
2023-03-03T06:59:15.793Z,7.70
2023-03-03T07:00:15.817Z,7.30
2023-03-03T07:01:15.847Z,13.00
2023-03-03T07:02:15.805Z,6.90
2023-03-03T07:03:15.815Z,7.20
2023-03-03T07:04:15.825Z,6.00
2023-03-03T07:05:15.862Z,5.80
2023-03-03T07:06:15.827Z,9.40
2023-03-03T07:07:15.835Z,5.70
2023-03-03T07:08:15.825Z,5.00
2023-03-03T07:09:15.837Z,5.50
2023-03-03T07:10:15.832Z,7.10
2023-03-03T07:11:15.844Z,5.80
2023-03-03T07:12:15.860Z,5.50
2023-03-03T07:13:15.849Z,5.40
2023-03-03T07:14:15.851Z,6.80
2023-03-03T07:15:15.860Z,5.20
2023-03-03T07:16:15.891Z,6.40
2023-03-03T07:17:15.868Z,5.30
2023-03-03T07:18:15.863Z,6.00
2023-03-03T07:19:15.869Z,7.70
2023-03-03T07:20:15.869Z,6.80
2023-03-03T07:21:15.876Z,5.00
2023-03-03T07:22:15.888Z,6.30
2023-03-03T07:23:15.894Z,7.60
2023-03-03T07:24:15.884Z,5.20
2023-03-03T07:25:15.890Z,6.10
2023-03-03T07:26:15.895Z,5.60
2023-03-03T07:27:15.900Z,6.50
2023-03-03T07:28:15.918Z,5.50
2023-03-03T07:29:15.912Z,6.50
2023-03-03T07:30:15.907Z,5.90
2023-03-03T07:31:15.997Z,7.20
2023-03-03T07:32:15.971Z,8.20
2023-03-03T07:33:15.921Z,5.80
2023-03-03T07:34:15.919Z,6.20
2023-03-03T07:35:15.926Z,5.70
2023-03-03T07:36:15.940Z,5.20
2023-03-03T07:37:15.934Z,4.90
2023-03-03T07:38:15.934Z,8.40
2023-03-03T07:39:15.945Z,6.20
2023-03-03T07:40:15.939Z,5.50
2023-03-03T07:41:15.952Z,5.50
2023-03-03T07:42:15.952Z,7.60
2023-03-03T07:43:15.955Z,6.60
2023-03-03T07:44:15.979Z,6.50
2023-03-03T07:45:15.960Z,6.90
2023-03-03T07:46:16.000Z,6.70
2023-03-03T07:47:15.971Z,6.20
2023-03-03T07:48:16.005Z,6.40
2023-03-03T07:49:15.975Z,5.20
2023-03-03T07:50:15.978Z,5.40
2023-03-03T07:51:16.002Z,6.20
2023-03-03T07:52:16.027Z,5.50
2023-03-03T07:53:16.055Z,5.80
2023-03-03T07:54:15.988Z,6.10
2023-03-03T07:55:15.999Z,7.40
2023-03-03T07:56:16.005Z,7.80
2023-03-03T07:57:16.012Z,8.00
2023-03-03T07:58:16.005Z,6.60
2023-03-03T07:59:16.016Z,5.90
2023-03-03T08:00:16.029Z,8.80
2023-03-03T08:01:16.029Z,9.20
2023-03-03T08:02:16.021Z,5.40
2023-03-03T08:03:16.029Z,4.90
2023-03-03T08:04:16.078Z,6.40
2023-03-03T08:05:16.206Z,5.00
2023-03-03T08:06:16.038Z,7.10
2023-03-03T08:07:16.049Z,5.00
2023-03-03T08:08:16.048Z,4.60
2023-03-03T08:09:16.052Z,5.40
2023-03-03T08:10:16.097Z,6.00
2023-03-03T08:11:16.055Z,9.50
2023-03-03T08:12:16.052Z,5.70
2023-03-03T08:13:16.060Z,5.60
2023-03-03T08:14:16.064Z,5.80
2023-03-03T08:15:16.063Z,6.20
2023-03-03T08:16:16.109Z,5.30
2023-03-03T08:17:16.069Z,3.80
2023-03-03T08:18:16.066Z,7.70
2023-03-03T08:19:16.110Z,5.40
2023-03-03T08:20:16.074Z,4.50
2023-03-03T08:21:16.083Z,5.60
2023-03-03T08:22:16.078Z,4.60
2023-03-03T08:23:16.097Z,7.70
2023-03-03T08:24:16.088Z,5.10
2023-03-03T08:25:16.092Z,5.40
2023-03-03T08:26:16.099Z,4.70
2023-03-03T08:27:16.113Z,6.20
2023-03-03T08:28:16.104Z,4.60
2023-03-03T08:29:16.105Z,8.10
2023-03-03T08:30:16.107Z,5.80
2023-03-03T08:31:25.216Z,5.40
2023-03-03T08:32:16.271Z,7.50
2023-03-03T08:33:16.122Z,9.40
2023-03-03T08:34:16.120Z,6.10
2023-03-03T08:35:16.127Z,6.60
2023-03-03T08:36:16.136Z,6.50
2023-03-03T08:37:16.136Z,6.60
2023-03-03T08:38:16.144Z,8.20
2023-03-03T08:39:16.142Z,6.30
2023-03-03T08:40:16.143Z,6.90
2023-03-03T08:41:16.150Z,6.20
2023-03-03T08:42:16.367Z,5.90
2023-03-03T08:43:16.188Z,6.20
2023-03-03T08:44:16.160Z,7.20
2023-03-03T08:45:16.166Z,5.60
2023-03-03T08:46:16.254Z,9.50
2023-03-03T08:47:16.178Z,6.50
2023-03-03T08:48:16.197Z,5.20
2023-03-03T08:49:16.186Z,4.80
2023-03-03T08:50:16.212Z,6.70
2023-03-03T08:51:16.205Z,5.40
2023-03-03T08:52:16.200Z,5.70
2023-03-03T08:53:16.206Z,5.50
2023-03-03T08:54:16.207Z,6.60
2023-03-03T08:55:16.217Z,6.80
2023-03-03T08:56:16.212Z,4.90
2023-03-03T08:57:16.222Z,4.80
2023-03-03T08:58:16.232Z,7.10
2023-03-03T08:59:16.228Z,5.70
2023-03-03T09:00:16.251Z,5.30
2023-03-03T09:01:16.236Z,4.90
2023-03-03T09:02:16.269Z,5.80
2023-03-03T09:03:16.244Z,8.00
2023-03-03T09:04:16.324Z,6.70
2023-03-03T09:05:16.252Z,6.20
2023-03-03T09:06:16.269Z,6.20
2023-03-03T09:07:16.267Z,7.30
2023-03-03T09:08:16.278Z,7.50
2023-03-03T09:09:16.272Z,6.60
2023-03-03T09:10:16.272Z,4.60
2023-03-03T09:11:16.279Z,5.60
2023-03-03T09:12:16.292Z,5.20
2023-03-03T09:13:16.294Z,6.90
2023-03-03T09:14:16.309Z,7.40
2023-03-03T09:15:16.300Z,5.40
2023-03-03T09:16:16.385Z,4.80
2023-03-03T09:17:16.343Z,4.90
2023-03-03T09:18:16.307Z,5.70
2023-03-03T09:19:16.317Z,8.10
2023-03-03T09:20:16.340Z,5.40
2023-03-03T09:21:16.324Z,5.00
2023-03-03T09:22:16.329Z,4.80
2023-03-03T09:23:16.339Z,6.80
2023-03-03T09:24:16.334Z,5.30
2023-03-03T09:25:16.343Z,4.20
2023-03-03T09:26:16.345Z,4.90
2023-03-03T09:27:16.355Z,5.30
2023-03-03T09:28:16.352Z,8.00
2023-03-03T09:29:16.368Z,6.70
2023-03-03T09:30:16.372Z,4.60
2023-03-03T09:31:16.384Z,4.60
2023-03-03T09:32:16.431Z,5.90
2023-03-03T09:33:16.380Z,4.70
2023-03-03T09:34:16.380Z,5.40
2023-03-03T09:35:16.395Z,4.60
2023-03-03T09:36:16.412Z,6.00
2023-03-03T09:37:16.420Z,4.90
2023-03-03T09:38:16.402Z,4.20
2023-03-03T09:39:16.406Z,5.20
2023-03-03T09:40:16.413Z,5.70
2023-03-03T09:41:16.432Z,5.00
2023-03-03T09:42:16.421Z,5.30
2023-03-03T09:43:18.892Z,4.50
2023-03-03T09:44:16.435Z,5.20
2023-03-03T09:45:16.450Z,6.10
2023-03-03T09:46:16.482Z,6.30
2023-03-03T09:47:16.447Z,4.70
2023-03-03T09:48:16.466Z,4.80
2023-03-03T09:49:16.465Z,5.30
2023-03-03T09:50:16.480Z,5.50
2023-03-03T09:51:16.469Z,5.10
2023-03-03T09:52:16.508Z,4.80
2023-03-03T09:53:16.480Z,5.10
2023-03-03T09:54:16.489Z,4.70
2023-03-03T09:55:16.514Z,5.40
2023-03-03T09:56:16.500Z,7.40
2023-03-03T09:57:16.503Z,4.50
2023-03-03T09:58:16.515Z,4.50
2023-03-03T09:59:16.515Z,4.30
2023-03-03T10:00:16.524Z,6.50
2023-03-03T10:01:16.528Z,4.90
2023-03-03T10:02:16.527Z,7.10
2023-03-03T10:03:16.680Z,6.60
2023-03-03T10:04:16.634Z,5.10
2023-03-03T10:05:16.550Z,5.30
2023-03-03T10:06:16.560Z,4.00
2023-03-03T10:07:16.559Z,7.00
2023-03-03T10:08:16.652Z,4.30
2023-03-03T10:09:16.574Z,5.00
2023-03-03T10:10:16.576Z,5.00
2023-03-03T10:11:16.615Z,5.50
2023-03-03T10:12:17.845Z,5.20
2023-03-03T10:13:16.593Z,5.10
2023-03-03T10:14:16.668Z,6.60
2023-03-03T10:15:16.606Z,6.00
2023-03-03T10:16:16.635Z,5.70
2023-03-03T10:17:16.620Z,5.40
2023-03-03T10:18:16.625Z,5.80
2023-03-03T10:19:16.630Z,4.40
2023-03-03T10:20:16.634Z,5.40
2023-03-03T10:21:16.644Z,5.40
2023-03-03T10:22:16.646Z,5.10
2023-03-03T10:23:16.656Z,6.60
2023-03-03T10:24:16.699Z,5.60
2023-03-03T10:25:16.680Z,5.80
2023-03-03T10:26:16.674Z,5.60
2023-03-03T10:27:16.681Z,6.40
2023-03-03T10:28:16.689Z,6.30
2023-03-03T10:29:22.061Z,4.90
2023-03-03T10:30:17.567Z,5.20
2023-03-03T10:31:18.503Z,5.80
2023-03-03T10:32:16.877Z,6.50
2023-03-03T10:33:17.291Z,6.90
2023-03-03T10:34:16.725Z,7.10
2023-03-03T10:35:16.737Z,9.30
2023-03-03T10:36:16.816Z,6.00
2023-03-03T10:37:16.753Z,5.40
2023-03-03T10:38:16.755Z,6.10
2023-03-03T10:39:16.762Z,6.00
2023-03-03T10:40:16.808Z,5.60
2023-03-03T10:41:16.774Z,7.00
2023-03-03T10:42:16.779Z,6.60
2023-03-03T10:43:29.857Z,7.80
2023-03-03T10:44:16.791Z,7.30
2023-03-03T10:45:16.801Z,7.60
2023-03-03T10:46:16.901Z,6.70
2023-03-03T10:47:16.816Z,7.50
2023-03-03T10:48:16.817Z,7.40
2023-03-03T10:49:16.829Z,6.50
2023-03-03T10:50:16.851Z,6.70
2023-03-03T10:51:16.842Z,6.90
2023-03-03T10:52:16.844Z,8.70
2023-03-03T10:53:16.857Z,8.50
2023-03-03T10:54:16.859Z,8.00
2023-03-03T10:55:16.869Z,8.40
2023-03-03T10:56:16.901Z,7.10
2023-03-03T10:57:16.887Z,7.60
2023-03-03T10:58:16.924Z,7.80
2023-03-03T10:59:16.912Z,11.40
2023-03-03T11:00:16.898Z,8.60
2023-03-03T11:01:16.954Z,7.40
2023-03-03T11:02:16.916Z,9.40
2023-03-03T11:03:16.927Z,10.10
2023-03-03T11:04:16.975Z,8.60
2023-03-03T11:05:16.951Z,11.10
2023-03-03T11:06:16.950Z,8.70
2023-03-03T11:07:16.952Z,9.10
2023-03-03T11:08:16.970Z,8.50
2023-03-03T11:09:16.971Z,10.30
2023-03-03T11:10:16.980Z,9.40
2023-03-03T11:11:16.985Z,9.80
2023-03-03T11:12:17.010Z,11.50
2023-03-03T11:13:16.997Z,10.00
2023-03-03T11:14:17.033Z,11.20
2023-03-03T11:15:17.011Z,10.30
2023-03-03T11:16:17.048Z,9.90
2023-03-03T11:17:17.028Z,8.90
2023-03-03T11:18:17.037Z,10.20
2023-03-03T11:19:17.039Z,10.80
2023-03-03T11:20:17.053Z,10.30
2023-03-03T11:21:17.061Z,11.20
2023-03-03T11:22:17.067Z,12.80
2023-03-03T11:23:17.069Z,11.00
2023-03-03T11:24:17.087Z,11.40
2023-03-03T11:25:17.083Z,10.90
2023-03-03T11:26:17.096Z,10.40
2023-03-03T11:27:17.101Z,9.40
2023-03-03T11:28:17.153Z,9.30
2023-03-03T11:29:17.116Z,10.50
2023-03-03T11:30:17.122Z,10.90
2023-03-03T11:31:17.213Z,11.30
2023-03-03T11:32:17.201Z,9.10
2023-03-03T11:33:17.140Z,11.60
2023-03-03T11:34:17.173Z,11.50
2023-03-03T11:35:17.225Z,10.60
2023-03-03T11:36:17.171Z,10.50
2023-03-03T11:37:17.197Z,11.10
2023-03-03T11:38:17.216Z,8.40
2023-03-03T11:39:17.206Z,11.90
2023-03-03T11:40:17.200Z,9.00
2023-03-03T11:41:17.207Z,9.00
2023-03-03T11:42:17.253Z,10.90
2023-03-03T11:43:33.730Z,8.90
2023-03-03T11:44:17.270Z,8.80
2023-03-03T11:45:17.235Z,9.90
2023-03-03T11:46:17.386Z,11.20
2023-03-03T11:47:17.251Z,9.10
2023-03-03T11:48:17.262Z,8.30
2023-03-03T11:49:17.307Z,10.30
2023-03-03T11:50:17.345Z,10.40
2023-03-03T11:51:17.286Z,9.00
2023-03-03T11:52:17.298Z,8.70
2023-03-03T11:53:17.299Z,10.30
2023-03-03T11:54:17.308Z,8.70
2023-03-03T11:55:17.313Z,9.70
2023-03-03T11:56:17.324Z,8.30
2023-03-03T11:57:17.328Z,9.60
2023-03-03T11:58:17.348Z,9.40
2023-03-03T11:59:17.355Z,8.10
2023-03-03T12:00:17.446Z,8.80
2023-03-03T12:01:17.363Z,8.00
2023-03-03T12:02:17.426Z,8.20
2023-03-03T12:03:17.381Z,7.90
2023-03-03T12:04:17.390Z,9.20
2023-03-03T12:05:17.393Z,9.00
2023-03-03T12:06:17.468Z,10.10
2023-03-03T12:07:19.564Z,9.00
2023-03-03T12:08:17.467Z,8.50
2023-03-03T12:09:17.427Z,9.10
2023-03-03T12:10:17.512Z,9.10
2023-03-03T12:11:17.445Z,7.20
2023-03-03T12:12:17.452Z,8.20
2023-03-03T12:13:17.461Z,8.40
2023-03-03T12:14:17.473Z,8.20
2023-03-03T12:15:17.485Z,7.80
2023-03-03T12:16:17.557Z,6.60
2023-03-03T12:17:17.490Z,9.00
2023-03-03T12:18:17.501Z,9.40
2023-03-03T12:19:17.508Z,7.50
2023-03-03T12:20:17.517Z,9.00
2023-03-03T12:21:17.526Z,7.60
2023-03-03T12:22:17.533Z,8.70
2023-03-03T12:23:17.541Z,9.70
2023-03-03T12:24:17.548Z,9.40
2023-03-03T12:25:17.565Z,8.60
2023-03-03T12:26:17.576Z,8.30
2023-03-03T12:27:17.573Z,9.40
2023-03-03T12:28:17.582Z,8.60
2023-03-03T12:29:17.592Z,9.30
2023-03-03T12:30:17.603Z,8.30
2023-03-03T12:31:17.679Z,8.60
2023-03-03T12:32:17.680Z,8.90
2023-03-03T12:33:17.673Z,7.20
2023-03-03T12:34:17.644Z,8.40
2023-03-03T12:35:17.677Z,7.80
2023-03-03T12:36:17.684Z,7.80
2023-03-03T12:37:17.672Z,6.70
2023-03-03T12:38:17.676Z,10.70
2023-03-03T12:39:32.380Z,8.90
2023-03-03T12:40:17.701Z,9.40
2023-03-03T12:41:17.708Z,9.20
2023-03-03T12:42:17.723Z,12.10
2023-03-03T12:43:17.725Z,8.70
2023-03-03T12:44:17.738Z,9.80
2023-03-03T12:45:17.743Z,9.60
2023-03-03T12:46:17.786Z,7.70
2023-03-03T12:47:17.769Z,7.80
2023-03-03T12:48:17.806Z,11.00
2023-03-03T12:49:17.790Z,8.30
2023-03-03T12:50:17.790Z,8.10
2023-03-03T12:51:17.807Z,9.00
2023-03-03T12:52:17.813Z,9.10
2023-03-03T12:53:17.821Z,7.80
2023-03-03T12:54:17.828Z,9.20
2023-03-03T12:55:17.838Z,6.80
2023-03-03T12:56:17.849Z,6.40
2023-03-03T12:57:17.856Z,8.20
2023-03-03T12:58:17.867Z,7.20
2023-03-03T12:59:18.310Z,10.80
2023-03-03T13:00:17.887Z,7.40
2023-03-03T13:01:17.914Z,8.00
2023-03-03T13:02:17.907Z,8.30
2023-03-03T13:03:17.958Z,9.10
2023-03-03T13:04:17.972Z,8.20
2023-03-03T13:05:17.936Z,8.20
2023-03-03T13:06:17.944Z,8.40
2023-03-03T13:07:17.953Z,8.00
2023-03-03T13:08:18.068Z,8.40
2023-03-03T13:09:17.972Z,7.30
2023-03-03T13:10:17.981Z,11.10
2023-03-03T13:11:18.003Z,8.30
2023-03-03T13:12:18.008Z,7.60
2023-03-03T13:13:18.006Z,7.20
2023-03-03T13:14:18.024Z,10.50
2023-03-03T13:15:18.338Z,7.10
2023-03-03T13:16:18.680Z,7.10